Riverdance — C6CG3 — position and weather

sailwx.info

Track history (hours):
 
Tides and Currents Weather Stations Pressure Air Temp Water Temp Dewpoint Dewpoint Depression Visibility Wind Speed Wind Dir Waves Ship Positions

Riverdance

Operator: Crescent Marine Services Ltd

Last reported at 2019-Oct-11 00:10 UTC. Time now 2019-Oct-18 23:35 UTC.
Position N 59°24' W 003°44'.

Length 72 m; draft 5.8 m.

Type: Other ship. MMSI: 311000463.

Date/timePositionNaut miles runAvg speedWind from/ knotsBaromVisibWave heightAir tempDewpointWater temp
2019-Oct-11 00:10N 59°24' W 003°44'2 6.5
2019-Oct-10 23:54N 59°22' W 003°43'4 6.6
2019-Oct-10 23:20N 59°19' W 003°41'2 6.6
2019-Oct-10 22:58N 59°16' W 003°40'3 6.7
2019-Oct-10 22:30N 59°13' W 003°39'3 6.5
2019-Oct-10 22:00N 59°10' W 003°38'3 6.0
2019-Oct-10 21:30N 59°07' W 003°37'3 5.8
2019-Oct-10 21:00N 59°04' W 003°36'3 6.0
2019-Oct-10 20:30N 59°01' W 003°35'3 6.5
2019-Oct-10 20:01N 58°58' W 003°33'4 7.1
2019-Oct-10 19:30N 58°55' W 003°32'4 7.5
2019-Oct-10 19:00N 58°51' W 003°30'4 7.2
2019-Oct-10 18:27N 58°47' W 003°27'3 5.8
2019-Oct-10 18:00N 58°45' W 003°24'3 5.1
2019-Oct-10 17:24N 58°44' W 003°18'2 3.4
2019-Oct-10 16:53N 58°44' W 003°15'1 3.6
2019-Oct-10 16:30N 58°44' W 003°12'2 5.1
2019-Oct-10 16:01N 58°43' W 003°08'3 5.7
2019-Oct-10 15:30N 58°42' W 003°03'3 6.6
2019-Oct-10 15:00N 58°39' W 002°58'3 6.0
2019-Oct-10 14:30N 58°37' W 002°57'3 5.2
2019-Oct-10 14:00N 58°34' W 002°58'2 1.6
2019-Oct-10 13:02N 58°33' W 003°00'0 2.5
2019-Oct-10 13:00N 58°33' W 003°00'1 2.7
2019-Oct-10 12:30N 58°33' W 002°58'1 2.1
2019-Oct-10 12:00N 58°33' W 002°56'2 3.7
2019-Oct-10 11:30N 58°33' W 002°59'1 1.6
2019-Oct-10 10:52N 58°33' W 003°01'1 3.1
2019-Oct-10 10:30N 58°33' W 002°59'1 2.9
2019-Oct-10 10:01N 58°34' W 002°57'3 3.3
2019-Oct-10 09:14N 58°32' W 003°00'1 3.8
2019-Oct-10 09:00N 58°32' W 002°59'2 1.3
2019-Oct-10 07:36N 58°31' W 003°01'1 3.4
2019-Oct-10 07:22N 58°31' W 002°60'0 1.0
2019-Oct-10 06:56N 58°32' W 002°59'2 3.9
2019-Oct-10 06:26N 58°31' W 003°03'2 3.4
2019-Oct-10 06:00N 58°32' W 003°00'1 0.7
2019-Oct-10 04:57N 58°31' W 003°01'2 2.9
2019-Oct-10 04:24N 58°32' W 002°59'1 3.0
2019-Oct-10 04:00N 58°33' W 002°58'1 2.4
2019-Oct-10 03:27N 58°32' W 002°60'1 0.4
2019-Oct-10 01:12N 58°33' W 002°59'0 2.2
2019-Oct-10 00:59N 58°34' W 002°59'0 0.2
2019-Oct-09 22:37N 58°34' W 002°58'0 3.0
2019-Oct-09 22:31N 58°34' W 002°59'3 5.6
2019-Oct-09 22:00N 58°31' W 003°01'1 1.2
2019-Oct-09 21:19N 58°31' W 002°60'1 3.4
2019-Oct-09 20:58N 58°31' W 002°58'2 4.2
2019-Oct-09 20:29N 58°30' W 002°55'3 4.9
2019-Oct-09 19:58N 58°28' W 002°52'3 6.5
2019-Oct-09 19:30N 58°26' W 002°47'4 8.0
2019-Oct-09 19:00N 58°24' W 002°41'4 8.0
2019-Oct-09 18:30N 58°22' W 002°35'  
2019-Oct-07 01:59N 57°45' W 001°56'4 9.0
2019-Oct-07 01:31N 57°45' W 001°48'5 9.7
2019-Oct-07 01:01N 57°43' W 001°40'510.2
2019-Oct-07 00:31N 57°40' W 001°31'510.0
2019-Oct-07 00:01N 57°38' W 001°24'5 9.9
2019-Oct-06 23:31N 57°35' W 001°16'5 9.8
2019-Oct-06 23:00N 57°32' W 001°08'  
Track history (hours):
 
Tides and Currents Weather Stations Pressure Air Temp Water Temp Dewpoint Dewpoint Depression Visibility Wind Speed Wind Dir Waves Ship Positions

Riverdance

Operator: Crescent Marine Services Ltd

Last reported at 2019-Oct-11 00:10 UTC. Time now 2019-Oct-18 23:35 UTC.
Position N 59°24' W 003°44'.

Length 72 m; draft 5.8 m.

Type: Other ship. MMSI: 311000463.

Date/timePositionNaut miles runAvg speedWind from/ knotsBaromVisibWave heightAir tempDewpointWater temp
2019-Oct-11 00:10N 59°24' W 003°44'2 6.5
2019-Oct-10 23:54N 59°22' W 003°43'4 6.6
2019-Oct-10 23:20N 59°19' W 003°41'2 6.6
2019-Oct-10 22:58N 59°16' W 003°40'3 6.7
2019-Oct-10 22:30N 59°13' W 003°39'3 6.5
2019-Oct-10 22:00N 59°10' W 003°38'3 6.0
2019-Oct-10 21:30N 59°07' W 003°37'3 5.8
2019-Oct-10 21:00N 59°04' W 003°36'3 6.0
2019-Oct-10 20:30N 59°01' W 003°35'3 6.5
2019-Oct-10 20:01N 58°58' W 003°33'4 7.1
2019-Oct-10 19:30N 58°55' W 003°32'4 7.5
2019-Oct-10 19:00N 58°51' W 003°30'4 7.2
2019-Oct-10 18:27N 58°47' W 003°27'3 5.8
2019-Oct-10 18:00N 58°45' W 003°24'3 5.1
2019-Oct-10 17:24N 58°44' W 003°18'2 3.4
2019-Oct-10 16:53N 58°44' W 003°15'1 3.6
2019-Oct-10 16:30N 58°44' W 003°12'2 5.1
2019-Oct-10 16:01N 58°43' W 003°08'3 5.7
2019-Oct-10 15:30N 58°42' W 003°03'3 6.6
2019-Oct-10 15:00N 58°39' W 002°58'3 6.0
2019-Oct-10 14:30N 58°37' W 002°57'3 5.2
2019-Oct-10 14:00N 58°34' W 002°58'2 1.6
2019-Oct-10 13:02N 58°33' W 003°00'0 2.5
2019-Oct-10 13:00N 58°33' W 003°00'1 2.7
2019-Oct-10 12:30N 58°33' W 002°58'1 2.1
2019-Oct-10 12:00N 58°33' W 002°56'2 3.7
2019-Oct-10 11:30N 58°33' W 002°59'1 1.6
2019-Oct-10 10:52N 58°33' W 003°01'1 3.1
2019-Oct-10 10:30N 58°33' W 002°59'1 2.9
2019-Oct-10 10:01N 58°34' W 002°57'3 3.3
2019-Oct-10 09:14N 58°32' W 003°00'1 3.8
2019-Oct-10 09:00N 58°32' W 002°59'2 1.3
2019-Oct-10 07:36N 58°31' W 003°01'1 3.4
2019-Oct-10 07:22N 58°31' W 002°60'0 1.0
2019-Oct-10 06:56N 58°32' W 002°59'2 3.9
2019-Oct-10 06:26N 58°31' W 003°03'2 3.4
2019-Oct-10 06:00N 58°32' W 003°00'1 0.7
2019-Oct-10 04:57N 58°31' W 003°01'2 2.9
2019-Oct-10 04:24N 58°32' W 002°59'1 3.0
2019-Oct-10 04:00N 58°33' W 002°58'1 2.4
2019-Oct-10 03:27N 58°32' W 002°60'1 0.4
2019-Oct-10 01:12N 58°33' W 002°59'0 2.2
2019-Oct-10 00:59N 58°34' W 002°59'0 0.2
2019-Oct-09 22:37N 58°34' W 002°58'0 3.0
2019-Oct-09 22:31N 58°34' W 002°59'3 5.6
2019-Oct-09 22:00N 58°31' W 003°01'1 1.2
2019-Oct-09 21:19N 58°31' W 002°60'1 3.4
2019-Oct-09 20:58N 58°31' W 002°58'2 4.2
2019-Oct-09 20:29N 58°30' W 002°55'3 4.9
2019-Oct-09 19:58N 58°28' W 002°52'3 6.5
2019-Oct-09 19:30N 58°26' W 002°47'4 8.0
2019-Oct-09 19:00N 58°24' W 002°41'4 8.0
2019-Oct-09 18:30N 58°22' W 002°35'  
2019-Oct-07 01:59N 57°45' W 001°56'4 9.0
2019-Oct-07 01:31N 57°45' W 001°48'5 9.7
2019-Oct-07 01:01N 57°43' W 001°40'510.2
2019-Oct-07 00:31N 57°40' W 001°31'510.0
2019-Oct-07 00:01N 57°38' W 001°24'5 9.9
2019-Oct-06 23:31N 57°35' W 001°16'5 9.8
2019-Oct-06 23:00N 57°32' W 001°08'  

Dump ship's entire track history